sensor_id;sensor_type;location;lat;lon;timestamp;P1;durP1;ratioP1;P2;durP2;ratioP2
26963;SDS011;14521;48.148;-1.656;2023-05-14T00:02:25;4.90;;;3.35;;
26963;SDS011;14521;48.148;-1.656;2023-05-14T00:05:48;4.07;;;3.08;;
26963;SDS011;14521;48.148;-1.656;2023-05-14T00:09:10;3.72;;;3.42;;
26963;SDS011;14521;48.148;-1.656;2023-05-14T00:12:33;3.47;;;3.17;;
26963;SDS011;14521;48.148;-1.656;2023-05-14T00:15:56;5.22;;;3.28;;
26963;SDS011;14521;48.148;-1.656;2023-05-14T00:19:18;4.53;;;4.18;;
26963;SDS011;14521;48.148;-1.656;2023-05-14T00:22:43;4.20;;;3.35;;
26963;SDS011;14521;48.148;-1.656;2023-05-14T00:26:05;3.45;;;3.25;;
26963;SDS011;14521;48.148;-1.656;2023-05-14T00:29:27;4.28;;;3.03;;
26963;SDS011;14521;48.148;-1.656;2023-05-14T00:32:50;3.40;;;3.10;;
26963;SDS011;14521;48.148;-1.656;2023-05-14T00:36:12;3.30;;;3.10;;
26963;SDS011;14521;48.148;-1.656;2023-05-14T00:39:35;3.47;;;3.17;;
26963;SDS011;14521;48.148;-1.656;2023-05-14T00:42:57;3.28;;;3.08;;
26963;SDS011;14521;48.148;-1.656;2023-05-14T00:46:20;3.60;;;3.30;;
26963;SDS011;14521;48.148;-1.656;2023-05-14T00:49:44;4.63;;;3.67;;
26963;SDS011;14521;48.148;-1.656;2023-05-14T00:53:07;6.97;;;3.53;;
26963;SDS011;14521;48.148;-1.656;2023-05-14T00:56:31;3.72;;;3.50;;
26963;SDS011;14521;48.148;-1.656;2023-05-14T00:59:54;3.38;;;3.17;;
26963;SDS011;14521;48.148;-1.656;2023-05-14T01:03:17;3.53;;;3.25;;
26963;SDS011;14521;48.148;-1.656;2023-05-14T01:17:53;3.53;;;3.33;;
26963;SDS011;14521;48.148;-1.656;2023-05-14T01:21:24;3.63;;;3.30;;
26963;SDS011;14521;48.148;-1.656;2023-05-14T01:25:00;3.70;;;3.40;;
26963;SDS011;14521;48.148;-1.656;2023-05-14T01:28:27;3.40;;;2.85;;
26963;SDS011;14521;48.148;-1.656;2023-05-14T01:31:55;3.38;;;3.13;;
26963;SDS011;14521;48.148;-1.656;2023-05-14T01:35:23;3.30;;;3.10;;
26963;SDS011;14521;48.148;-1.656;2023-05-14T01:38:49;3.70;;;3.40;;
26963;SDS011;14521;48.148;-1.656;2023-05-14T01:42:12;5.22;;;3.25;;
26963;SDS011;14521;48.148;-1.656;2023-05-14T01:45:35;3.47;;;3.17;;
26963;SDS011;14521;48.148;-1.656;2023-05-14T01:48:58;3.30;;;3.10;;
26963;SDS011;14521;48.148;-1.656;2023-05-14T01:52:21;3.53;;;3.22;;
26963;SDS011;14521;48.148;-1.656;2023-05-14T01:55:43;3.25;;;3.03;;
26963;SDS011;14521;48.148;-1.656;2023-05-14T01:59:05;3.63;;;3.33;;
26963;SDS011;14521;48.148;-1.656;2023-05-14T02:02:28;3.95;;;3.42;;
26963;SDS011;14521;48.148;-1.656;2023-05-14T02:05:50;3.13;;;2.92;;
26963;SDS011;14521;48.148;-1.656;2023-05-14T02:09:12;3.38;;;3.17;;
26963;SDS011;14521;48.148;-1.656;2023-05-14T02:12:35;3.17;;;2.97;;
26963;SDS011;14521;48.148;-1.656;2023-05-14T02:15:57;3.55;;;3.25;;
26963;SDS011;14521;48.148;-1.656;2023-05-14T02:19:19;4.40;;;3.20;;
26963;SDS011;14521;48.148;-1.656;2023-05-14T02:22:42;3.58;;;3.35;;
26963;SDS011;14521;48.148;-1.656;2023-05-14T02:26:07;3.40;;;3.00;;
26963;SDS011;14521;48.148;-1.656;2023-05-14T02:29:30;3.50;;;3.30;;
26963;SDS011;14521;48.148;-1.656;2023-05-14T02:32:52;3.60;;;3.15;;
26963;SDS011;14521;48.148;-1.656;2023-05-14T02:36:15;3.40;;;3.17;;
26963;SDS011;14521;48.148;-1.656;2023-05-14T02:39:38;3.60;;;3.40;;
26963;SDS011;14521;48.148;-1.656;2023-05-14T02:43:00;4.22;;;3.30;;
26963;SDS011;14521;48.148;-1.656;2023-05-14T02:46:22;4.80;;;3.60;;
26963;SDS011;14521;48.148;-1.656;2023-05-14T02:49:45;3.83;;;3.53;;
26963;SDS011;14521;48.148;-1.656;2023-05-14T02:53:07;3.53;;;3.33;;
26963;SDS011;14521;48.148;-1.656;2023-05-14T02:56:30;3.75;;;3.53;;
26963;SDS011;14521;48.148;-1.656;2023-05-14T02:59:52;3.90;;;3.60;;
26963;SDS011;14521;48.148;-1.656;2023-05-14T03:03:14;3.75;;;3.45;;
26963;SDS011;14521;48.148;-1.656;2023-05-14T03:06:37;9.02;;;3.53;;
26963;SDS011;14521;48.148;-1.656;2023-05-14T03:09:59;3.78;;;3.28;;
26963;SDS011;14521;48.148;-1.656;2023-05-14T03:13:22;3.95;;;3.65;;
26963;SDS011;14521;48.148;-1.656;2023-05-14T03:16:44;3.97;;;3.67;;
26963;SDS011;14521;48.148;-1.656;2023-05-14T03:20:07;4.00;;;3.25;;
26963;SDS011;14521;48.148;-1.656;2023-05-14T03:23:29;3.88;;;3.58;;
26963;SDS011;14521;48.148;-1.656;2023-05-14T03:26:55;6.45;;;3.47;;
26963;SDS011;14521;48.148;-1.656;2023-05-14T03:30:17;4.60;;;3.22;;
26963;SDS011;14521;48.148;-1.656;2023-05-14T03:33:40;3.67;;;3.38;;
26963;SDS011;14521;48.148;-1.656;2023-05-14T03:37:02;4.18;;;3.88;;
26963;SDS011;14521;48.148;-1.656;2023-05-14T03:40:25;3.88;;;3.58;;
26963;SDS011;14521;48.148;-1.656;2023-05-14T03:43:47;4.15;;;3.75;;
26963;SDS011;14521;48.148;-1.656;2023-05-14T03:47:09;3.70;;;3.40;;
26963;SDS011;14521;48.148;-1.656;2023-05-14T03:50:32;4.97;;;3.65;;
26963;SDS011;14521;48.148;-1.656;2023-05-14T03:53:54;12.73;;;5.88;;
26963;SDS011;14521;48.148;-1.656;2023-05-14T03:57:18;4.00;;;3.70;;
26963;SDS011;14521;48.148;-1.656;2023-05-14T04:00:41;4.63;;;4.00;;
26963;SDS011;14521;48.148;-1.656;2023-05-14T04:04:04;3.75;;;3.55;;
26963;SDS011;14521;48.148;-1.656;2023-05-14T04:07:27;4.20;;;3.33;;
26963;SDS011;14521;48.148;-1.656;2023-05-14T04:10:49;4.60;;;3.47;;
26963;SDS011;14521;48.148;-1.656;2023-05-14T04:14:12;3.92;;;3.67;;
26963;SDS011;14521;48.148;-1.656;2023-05-14T04:17:34;4.18;;;3.88;;
26963;SDS011;14521;48.148;-1.656;2023-05-14T04:20:56;4.30;;;4.00;;
26963;SDS011;14521;48.148;-1.656;2023-05-14T04:24:19;3.65;;;3.33;;
26963;SDS011;14521;48.148;-1.656;2023-05-14T04:27:41;6.05;;;4.43;;
26963;SDS011;14521;48.148;-1.656;2023-05-14T04:31:03;7.53;;;4.18;;
26963;SDS011;14521;48.148;-1.656;2023-05-14T04:34:26;6.45;;;3.85;;
26963;SDS011;14521;48.148;-1.656;2023-05-14T04:37:48;5.18;;;3.95;;
26963;SDS011;14521;48.148;-1.656;2023-05-14T04:41:11;4.40;;;4.10;;
26963;SDS011;14521;48.148;-1.656;2023-05-14T04:44:33;4.32;;;4.03;;
26963;SDS011;14521;48.148;-1.656;2023-05-14T04:47:56;4.53;;;4.13;;
26963;SDS011;14521;48.148;-1.656;2023-05-14T04:51:19;4.10;;;3.75;;
26963;SDS011;14521;48.148;-1.656;2023-05-14T04:54:41;4.65;;;4.25;;
26963;SDS011;14521;48.148;-1.656;2023-05-14T04:58:03;5.07;;;4.22;;
26963;SDS011;14521;48.148;-1.656;2023-05-14T05:01:26;4.20;;;3.80;;
26963;SDS011;14521;48.148;-1.656;2023-05-14T05:04:48;4.32;;;4.03;;
26963;SDS011;14521;48.148;-1.656;2023-05-14T05:08:10;4.57;;;4.18;;
26963;SDS011;14521;48.148;-1.656;2023-05-14T05:11:33;4.78;;;3.88;;
26963;SDS011;14521;48.148;-1.656;2023-05-14T05:14:55;4.40;;;3.75;;
26963;SDS011;14521;48.148;-1.656;2023-05-14T05:18:18;4.35;;;3.95;;
26963;SDS011;14521;48.148;-1.656;2023-05-14T05:21:40;3.95;;;3.65;;
26963;SDS011;14521;48.148;-1.656;2023-05-14T05:25:02;3.75;;;3.55;;
26963;SDS011;14521;48.148;-1.656;2023-05-14T05:28:29;4.35;;;4.03;;
26963;SDS011;14521;48.148;-1.656;2023-05-14T05:31:52;4.47;;;4.10;;
26963;SDS011;14521;48.148;-1.656;2023-05-14T05:35:14;4.43;;;3.70;;
26963;SDS011;14521;48.148;-1.656;2023-05-14T05:38:36;5.60;;;3.72;;
26963;SDS011;14521;48.148;-1.656;2023-05-14T05:42:02;5.05;;;4.45;;
26963;SDS011;14521;48.148;-1.656;2023-05-14T05:45:26;4.15;;;3.75;;
26963;SDS011;14521;48.148;-1.656;2023-05-14T05:48:48;5.75;;;3.60;;
26963;SDS011;14521;48.148;-1.656;2023-05-14T05:52:10;6.53;;;4.20;;
26963;SDS011;14521;48.148;-1.656;2023-05-14T05:55:32;4.30;;;4.00;;
26963;SDS011;14521;48.148;-1.656;2023-05-14T05:58:55;4.30;;;3.90;;
26963;SDS011;14521;48.148;-1.656;2023-05-14T06:02:17;7.00;;;3.20;;
26963;SDS011;14521;48.148;-1.656;2023-05-14T06:05:40;4.10;;;3.70;;
26963;SDS011;14521;48.148;-1.656;2023-05-14T06:09:02;4.60;;;4.20;;
26963;SDS011;14521;48.148;-1.656;2023-05-14T06:12:25;4.38;;;4.07;;
26963;SDS011;14521;48.148;-1.656;2023-05-14T06:15:47;5.97;;;4.78;;
26963;SDS011;14521;48.148;-1.656;2023-05-14T06:19:10;4.70;;;4.30;;
26963;SDS011;14521;48.148;-1.656;2023-05-14T06:22:32;4.55;;;4.20;;
26963;SDS011;14521;48.148;-1.656;2023-05-14T06:25:55;4.82;;;4.38;;
26963;SDS011;14521;48.148;-1.656;2023-05-14T06:29:17;4.65;;;4.20;;
26963;SDS011;14521;48.148;-1.656;2023-05-14T06:32:39;4.65;;;4.35;;
26963;SDS011;14521;48.148;-1.656;2023-05-14T06:36:03;5.55;;;3.90;;
26963;SDS011;14521;48.148;-1.656;2023-05-14T06:39:26;16.52;;;4.65;;
26963;SDS011;14521;48.148;-1.656;2023-05-14T06:42:48;4.85;;;4.32;;
26963;SDS011;14521;48.148;-1.656;2023-05-14T06:46:11;5.47;;;4.78;;
26963;SDS011;14521;48.148;-1.656;2023-05-14T06:49:33;5.35;;;4.63;;
26963;SDS011;14521;48.148;-1.656;2023-05-14T06:52:56;4.68;;;4.18;;
26963;SDS011;14521;48.148;-1.656;2023-05-14T06:56:18;5.75;;;4.30;;
26963;SDS011;14521;48.148;-1.656;2023-05-14T06:59:42;5.30;;;4.80;;
26963;SDS011;14521;48.148;-1.656;2023-05-14T07:03:04;4.88;;;4.40;;
26963;SDS011;14521;48.148;-1.656;2023-05-14T07:06:27;4.80;;;4.40;;
26963;SDS011;14521;48.148;-1.656;2023-05-14T07:09:49;4.78;;;4.38;;
26963;SDS011;14521;48.148;-1.656;2023-05-14T07:13:12;5.18;;;4.75;;
26963;SDS011;14521;48.148;-1.656;2023-05-14T07:16:34;4.80;;;4.43;;
26963;SDS011;14521;48.148;-1.656;2023-05-14T07:19:57;4.95;;;4.50;;
26963;SDS011;14521;48.148;-1.656;2023-05-14T07:23:19;5.05;;;4.55;;
26963;SDS011;14521;48.148;-1.656;2023-05-14T07:26:41;5.10;;;4.78;;
26963;SDS011;14521;48.148;-1.656;2023-05-14T07:30:03;5.65;;;4.22;;
26963;SDS011;14521;48.148;-1.656;2023-05-14T07:33:26;4.90;;;4.50;;
26963;SDS011;14521;48.148;-1.656;2023-05-14T07:36:52;4.63;;;4.30;;
26963;SDS011;14521;48.148;-1.656;2023-05-14T07:40:14;4.60;;;4.30;;
26963;SDS011;14521;48.148;-1.656;2023-05-14T07:43:37;5.75;;;4.43;;
26963;SDS011;14521;48.148;-1.656;2023-05-14T07:47:01;4.40;;;4.07;;
26963;SDS011;14521;48.148;-1.656;2023-05-14T07:50:24;4.40;;;3.90;;
26963;SDS011;14521;48.148;-1.656;2023-05-14T07:53:47;6.65;;;4.95;;
26963;SDS011;14521;48.148;-1.656;2023-05-14T07:57:09;6.03;;;5.15;;
26963;SDS011;14521;48.148;-1.656;2023-05-14T08:00:31;18.27;;;8.52;;
26963;SDS011;14521;48.148;-1.656;2023-05-14T08:03:54;9.60;;;6.32;;
26963;SDS011;14521;48.148;-1.656;2023-05-14T08:07:17;12.07;;;4.30;;
26963;SDS011;14521;48.148;-1.656;2023-05-14T08:10:39;6.68;;;5.95;;
26963;SDS011;14521;48.148;-1.656;2023-05-14T08:14:01;8.60;;;6.13;;
26963;SDS011;14521;48.148;-1.656;2023-05-14T08:17:23;6.63;;;5.25;;
26963;SDS011;14521;48.148;-1.656;2023-05-14T08:20:46;8.35;;;5.47;;
26963;SDS011;14521;48.148;-1.656;2023-05-14T08:24:09;9.32;;;7.20;;
26963;SDS011;14521;48.148;-1.656;2023-05-14T08:27:32;12.45;;;6.32;;
26963;SDS011;14521;48.148;-1.656;2023-05-14T08:30:54;7.72;;;6.43;;
26963;SDS011;14521;48.148;-1.656;2023-05-14T08:34:16;9.82;;;7.30;;
26963;SDS011;14521;48.148;-1.656;2023-05-14T08:37:39;10.93;;;7.90;;
26963;SDS011;14521;48.148;-1.656;2023-05-14T08:41:01;9.55;;;7.97;;
26963;SDS011;14521;48.148;-1.656;2023-05-14T08:44:32;10.75;;;8.35;;
26963;SDS011;14521;48.148;-1.656;2023-05-14T08:48:00;9.95;;;7.68;;
26963;SDS011;14521;48.148;-1.656;2023-05-14T08:51:29;10.00;;;7.75;;
26963;SDS011;14521;48.148;-1.656;2023-05-14T08:54:52;12.27;;;7.90;;
26963;SDS011;14521;48.148;-1.656;2023-05-14T08:58:14;8.52;;;7.32;;
26963;SDS011;14521;48.148;-1.656;2023-05-14T09:01:37;10.75;;;9.13;;
26963;SDS011;14521;48.148;-1.656;2023-05-14T09:05:00;11.38;;;8.52;;
26963;SDS011;14521;48.148;-1.656;2023-05-14T09:08:24;8.65;;;7.80;;
26963;SDS011;14521;48.148;-1.656;2023-05-14T09:11:50;10.38;;;8.02;;
26963;SDS011;14521;48.148;-1.656;2023-05-14T09:15:13;16.98;;;8.18;;
26963;SDS011;14521;48.148;-1.656;2023-05-14T09:18:36;16.23;;;8.82;;
26963;SDS011;14521;48.148;-1.656;2023-05-14T09:21:58;9.93;;;8.82;;
26963;SDS011;14521;48.148;-1.656;2023-05-14T09:25:24;14.98;;;8.95;;
26963;SDS011;14521;48.148;-1.656;2023-05-14T09:28:47;20.73;;;9.55;;
26963;SDS011;14521;48.148;-1.656;2023-05-14T09:32:09;12.95;;;9.65;;
26963;SDS011;14521;48.148;-1.656;2023-05-14T09:35:32;13.32;;;10.10;;
26963;SDS011;14521;48.148;-1.656;2023-05-14T09:38:57;17.85;;;10.15;;
26963;SDS011;14521;48.148;-1.656;2023-05-14T09:42:21;17.75;;;10.18;;
26963;SDS011;14521;48.148;-1.656;2023-05-14T09:45:43;15.07;;;10.80;;
26963;SDS011;14521;48.148;-1.656;2023-05-14T09:49:06;10.85;;;9.73;;
26963;SDS011;14521;48.148;-1.656;2023-05-14T09:52:28;12.38;;;8.55;;
26963;SDS011;14521;48.148;-1.656;2023-05-14T09:55:51;11.35;;;7.68;;
26963;SDS011;14521;48.148;-1.656;2023-05-14T09:59:13;11.77;;;8.43;;
26963;SDS011;14521;48.148;-1.656;2023-05-14T10:02:36;13.73;;;9.80;;
26963;SDS011;14521;48.148;-1.656;2023-05-14T10:06:00;12.02;;;10.07;;
26963;SDS011;14521;48.148;-1.656;2023-05-14T10:09:26;12.55;;;9.93;;
26963;SDS011;14521;48.148;-1.656;2023-05-14T10:12:50;15.23;;;10.13;;
26963;SDS011;14521;48.148;-1.656;2023-05-14T10:19:49;11.40;;;8.23;;
26963;SDS011;14521;48.148;-1.656;2023-05-14T10:23:15;10.35;;;8.57;;
26963;SDS011;14521;48.148;-1.656;2023-05-14T10:26:38;11.43;;;9.35;;
26963;SDS011;14521;48.148;-1.656;2023-05-14T10:30:04;11.00;;;9.40;;
26963;SDS011;14521;48.148;-1.656;2023-05-14T10:33:30;9.73;;;8.38;;
26963;SDS011;14521;48.148;-1.656;2023-05-14T10:37:12;9.88;;;8.45;;
26963;SDS011;14521;48.148;-1.656;2023-05-14T10:40:35;13.57;;;8.45;;
26963;SDS011;14521;48.148;-1.656;2023-05-14T10:43:59;10.47;;;7.80;;
26963;SDS011;14521;48.148;-1.656;2023-05-14T10:47:30;11.85;;;8.68;;
26963;SDS011;14521;48.148;-1.656;2023-05-14T10:50:56;12.68;;;8.13;;
26963;SDS011;14521;48.148;-1.656;2023-05-14T10:54:19;16.25;;;7.32;;
26963;SDS011;14521;48.148;-1.656;2023-05-14T10:57:44;13.63;;;7.82;;
26963;SDS011;14521;48.148;-1.656;2023-05-14T11:01:08;8.82;;;6.93;;
26963;SDS011;14521;48.148;-1.656;2023-05-14T11:04:32;13.77;;;7.75;;
26963;SDS011;14521;48.148;-1.656;2023-05-14T11:07:55;14.65;;;8.02;;
26963;SDS011;14521;48.148;-1.656;2023-05-14T11:11:18;10.85;;;8.77;;
26963;SDS011;14521;48.148;-1.656;2023-05-14T11:14:41;8.40;;;7.47;;
26963;SDS011;14521;48.148;-1.656;2023-05-14T11:18:03;8.68;;;7.50;;
26963;SDS011;14521;48.148;-1.656;2023-05-14T11:21:26;17.52;;;7.72;;
26963;SDS011;14521;48.148;-1.656;2023-05-14T11:24:48;7.70;;;6.22;;
26963;SDS011;14521;48.148;-1.656;2023-05-14T11:28:11;11.95;;;6.88;;
26963;SDS011;14521;48.148;-1.656;2023-05-14T11:31:34;16.42;;;8.25;;
26963;SDS011;14521;48.148;-1.656;2023-05-14T11:34:56;10.88;;;7.28;;
26963;SDS011;14521;48.148;-1.656;2023-05-14T11:38:19;10.15;;;6.05;;
26963;SDS011;14521;48.148;-1.656;2023-05-14T11:41:45;7.43;;;5.65;;
26963;SDS011;14521;48.148;-1.656;2023-05-14T11:45:09;10.43;;;5.60;;
26963;SDS011;14521;48.148;-1.656;2023-05-14T11:48:33;8.18;;;5.82;;
26963;SDS011;14521;48.148;-1.656;2023-05-14T11:51:59;6.45;;;5.68;;
26963;SDS011;14521;48.148;-1.656;2023-05-14T11:55:22;5.45;;;5.05;;
26963;SDS011;14521;48.148;-1.656;2023-05-14T11:58:48;5.85;;;5.30;;
26963;SDS011;14521;48.148;-1.656;2023-05-14T12:02:10;8.50;;;5.13;;
26963;SDS011;14521;48.148;-1.656;2023-05-14T12:05:36;5.32;;;4.88;;
26963;SDS011;14521;48.148;-1.656;2023-05-14T12:08:59;5.35;;;4.82;;
26963;SDS011;14521;48.148;-1.656;2023-05-14T12:12:22;6.47;;;5.25;;
26963;SDS011;14521;48.148;-1.656;2023-05-14T12:15:52;5.55;;;5.15;;
26963;SDS011;14521;48.148;-1.656;2023-05-14T12:19:17;5.38;;;4.90;;
26963;SDS011;14521;48.148;-1.656;2023-05-14T12:22:40;6.10;;;5.35;;
26963;SDS011;14521;48.148;-1.656;2023-05-14T12:26:04;7.88;;;5.25;;
26963;SDS011;14521;48.148;-1.656;2023-05-14T12:29:27;4.93;;;4.63;;
26963;SDS011;14521;48.148;-1.656;2023-05-14T12:32:50;5.72;;;5.22;;
26963;SDS011;14521;48.148;-1.656;2023-05-14T12:36:13;13.10;;;4.95;;
26963;SDS011;14521;48.148;-1.656;2023-05-14T12:39:40;7.32;;;3.72;;
26963;SDS011;14521;48.148;-1.656;2023-05-14T12:43:03;4.20;;;3.90;;
26963;SDS011;14521;48.148;-1.656;2023-05-14T12:46:26;4.38;;;4.07;;
26963;SDS011;14521;48.148;-1.656;2023-05-14T12:49:48;6.07;;;3.70;;
26963;SDS011;14521;48.148;-1.656;2023-05-14T12:53:11;5.85;;;3.97;;
26963;SDS011;14521;48.148;-1.656;2023-05-14T12:56:37;4.15;;;3.83;;
26963;SDS011;14521;48.148;-1.656;2023-05-14T12:59:59;4.28;;;3.97;;
26963;SDS011;14521;48.148;-1.656;2023-05-14T13:03:22;6.72;;;3.67;;
26963;SDS011;14521;48.148;-1.656;2023-05-14T13:06:44;4.20;;;3.90;;
26963;SDS011;14521;48.148;-1.656;2023-05-14T13:10:07;4.50;;;4.20;;
26963;SDS011;14521;48.148;-1.656;2023-05-14T13:13:29;3.95;;;3.47;;
26963;SDS011;14521;48.148;-1.656;2023-05-14T13:16:52;3.75;;;3.42;;
26963;SDS011;14521;48.148;-1.656;2023-05-14T13:20:14;3.53;;;3.33;;
26963;SDS011;14521;48.148;-1.656;2023-05-14T13:23:39;6.13;;;3.60;;
26963;SDS011;14521;48.148;-1.656;2023-05-14T13:27:01;6.35;;;4.40;;
26963;SDS011;14521;48.148;-1.656;2023-05-14T13:30:23;7.88;;;5.38;;
26963;SDS011;14521;48.148;-1.656;2023-05-14T13:33:46;8.13;;;6.47;;
26963;SDS011;14521;48.148;-1.656;2023-05-14T13:37:08;5.13;;;4.63;;
26963;SDS011;14521;48.148;-1.656;2023-05-14T13:40:31;7.97;;;5.78;;
26963;SDS011;14521;48.148;-1.656;2023-05-14T13:43:54;7.78;;;6.97;;
26963;SDS011;14521;48.148;-1.656;2023-05-14T13:47:17;9.88;;;6.45;;
26963;SDS011;14521;48.148;-1.656;2023-05-14T13:50:40;8.55;;;7.30;;
26963;SDS011;14521;48.148;-1.656;2023-05-14T13:54:02;7.47;;;6.50;;
26963;SDS011;14521;48.148;-1.656;2023-05-14T13:57:24;9.52;;;7.40;;
26963;SDS011;14521;48.148;-1.656;2023-05-14T14:00:47;7.45;;;5.63;;
26963;SDS011;14521;48.148;-1.656;2023-05-14T14:04:10;6.60;;;6.10;;
26963;SDS011;14521;48.148;-1.656;2023-05-14T14:07:32;7.93;;;5.82;;
26963;SDS011;14521;48.148;-1.656;2023-05-14T14:10:54;6.45;;;5.93;;
26963;SDS011;14521;48.148;-1.656;2023-05-14T14:14:17;7.43;;;5.70;;
26963;SDS011;14521;48.148;-1.656;2023-05-14T14:17:39;6.45;;;5.85;;
26963;SDS011;14521;48.148;-1.656;2023-05-14T14:21:02;6.85;;;6.05;;
26963;SDS011;14521;48.148;-1.656;2023-05-14T14:24:25;6.03;;;5.53;;
26963;SDS011;14521;48.148;-1.656;2023-05-14T14:27:47;5.85;;;5.35;;
26963;SDS011;14521;48.148;-1.656;2023-05-14T14:31:10;6.00;;;5.45;;
26963;SDS011;14521;48.148;-1.656;2023-05-14T14:34:32;5.00;;;4.60;;
26963;SDS011;14521;48.148;-1.656;2023-05-14T14:37:54;6.85;;;5.25;;
26963;SDS011;14521;48.148;-1.656;2023-05-14T14:41:17;4.88;;;4.45;;
26963;SDS011;14521;48.148;-1.656;2023-05-14T14:44:39;5.22;;;4.72;;
26963;SDS011;14521;48.148;-1.656;2023-05-14T14:51:54;6.03;;;4.55;;
26963;SDS011;14521;48.148;-1.656;2023-05-14T14:55:17;4.93;;;4.47;;
26963;SDS011;14521;48.148;-1.656;2023-05-14T14:58:39;10.45;;;4.80;;
26963;SDS011;14521;48.148;-1.656;2023-05-14T15:02:01;4.60;;;4.20;;
26963;SDS011;14521;48.148;-1.656;2023-05-14T15:05:24;10.05;;;4.70;;
26963;SDS011;14521;48.148;-1.656;2023-05-14T15:08:46;7.40;;;5.10;;
26963;SDS011;14521;48.148;-1.656;2023-05-14T15:12:09;6.03;;;4.88;;
26963;SDS011;14521;48.148;-1.656;2023-05-14T15:15:40;4.60;;;4.30;;
26963;SDS011;14521;48.148;-1.656;2023-05-14T15:19:02;6.10;;;4.88;;
26963;SDS011;14521;48.148;-1.656;2023-05-14T15:22:25;5.53;;;5.13;;
26963;SDS011;14521;48.148;-1.656;2023-05-14T15:25:47;5.72;;;5.07;;
26963;SDS011;14521;48.148;-1.656;2023-05-14T15:29:10;5.90;;;4.80;;
26963;SDS011;14521;48.148;-1.656;2023-05-14T15:32:33;5.82;;;4.75;;
26963;SDS011;14521;48.148;-1.656;2023-05-14T15:35:55;5.57;;;4.70;;
26963;SDS011;14521;48.148;-1.656;2023-05-14T15:39:17;4.72;;;4.40;;
26963;SDS011;14521;48.148;-1.656;2023-05-14T15:42:41;4.40;;;3.88;;
26963;SDS011;14521;48.148;-1.656;2023-05-14T15:46:04;6.77;;;4.90;;
26963;SDS011;14521;48.148;-1.656;2023-05-14T15:49:26;4.80;;;4.40;;
26963;SDS011;14521;48.148;-1.656;2023-05-14T15:52:48;5.63;;;4.63;;
26963;SDS011;14521;48.148;-1.656;2023-05-14T15:56:11;7.32;;;4.40;;
26963;SDS011;14521;48.148;-1.656;2023-05-14T15:59:33;4.65;;;4.35;;
26963;SDS011;14521;48.148;-1.656;2023-05-14T16:02:56;4.88;;;4.38;;
26963;SDS011;14521;48.148;-1.656;2023-05-14T16:06:18;4.70;;;4.05;;
26963;SDS011;14521;48.148;-1.656;2023-05-14T16:09:40;5.22;;;4.57;;
26963;SDS011;14521;48.148;-1.656;2023-05-14T16:13:03;6.03;;;4.38;;
26963;SDS011;14521;48.148;-1.656;2023-05-14T16:16:25;4.97;;;4.25;;
26963;SDS011;14521;48.148;-1.656;2023-05-14T16:19:48;5.22;;;4.93;;
26963;SDS011;14521;48.148;-1.656;2023-05-14T16:23:10;6.60;;;5.60;;
26963;SDS011;14521;48.148;-1.656;2023-05-14T16:26:32;6.10;;;5.50;;
26963;SDS011;14521;48.148;-1.656;2023-05-14T16:29:54;8.82;;;6.53;;
26963;SDS011;14521;48.148;-1.656;2023-05-14T16:33:17;6.38;;;5.72;;
26963;SDS011;14521;48.148;-1.656;2023-05-14T16:36:39;4.82;;;4.53;;
26963;SDS011;14521;48.148;-1.656;2023-05-14T16:40:01;6.07;;;5.60;;
26963;SDS011;14521;48.148;-1.656;2023-05-14T16:43:24;6.22;;;5.63;;
26963;SDS011;14521;48.148;-1.656;2023-05-14T16:46:46;6.20;;;5.38;;
26963;SDS011;14521;48.148;-1.656;2023-05-14T16:50:09;5.38;;;4.97;;
26963;SDS011;14521;48.148;-1.656;2023-05-14T16:53:31;7.05;;;6.45;;
26963;SDS011;14521;48.148;-1.656;2023-05-14T16:56:54;4.88;;;4.47;;
26963;SDS011;14521;48.148;-1.656;2023-05-14T17:00:16;8.70;;;4.47;;
26963;SDS011;14521;48.148;-1.656;2023-05-14T17:03:39;4.75;;;4.30;;
26963;SDS011;14521;48.148;-1.656;2023-05-14T17:07:01;4.38;;;3.97;;
26963;SDS011;14521;48.148;-1.656;2023-05-14T17:10:24;5.45;;;4.57;;
26963;SDS011;14521;48.148;-1.656;2023-05-14T17:13:47;4.15;;;3.85;;
26963;SDS011;14521;48.148;-1.656;2023-05-14T17:17:09;4.03;;;3.80;;
26963;SDS011;14521;48.148;-1.656;2023-05-14T17:20:32;4.60;;;4.30;;
26963;SDS011;14521;48.148;-1.656;2023-05-14T17:23:54;4.70;;;4.30;;
26963;SDS011;14521;48.148;-1.656;2023-05-14T17:27:16;6.30;;;4.03;;
26963;SDS011;14521;48.148;-1.656;2023-05-14T17:30:39;4.82;;;4.40;;
26963;SDS011;14521;48.148;-1.656;2023-05-14T17:34:01;4.70;;;4.38;;
26963;SDS011;14521;48.148;-1.656;2023-05-14T17:37:24;4.22;;;4.00;;
26963;SDS011;14521;48.148;-1.656;2023-05-14T17:40:46;4.63;;;4.22;;
26963;SDS011;14521;48.148;-1.656;2023-05-14T17:44:09;12.52;;;3.75;;
26963;SDS011;14521;48.148;-1.656;2023-05-14T17:47:33;4.20;;;3.90;;
26963;SDS011;14521;48.148;-1.656;2023-05-14T17:50:56;10.20;;;3.72;;
26963;SDS011;14521;48.148;-1.656;2023-05-14T17:54:18;5.80;;;3.97;;
26963;SDS011;14521;48.148;-1.656;2023-05-14T17:57:40;11.45;;;4.05;;
26963;SDS011;14521;48.148;-1.656;2023-05-14T18:01:03;3.67;;;3.40;;
26963;SDS011;14521;48.148;-1.656;2023-05-14T18:04:26;4.32;;;3.92;;
26963;SDS011;14521;48.148;-1.656;2023-05-14T18:07:49;5.95;;;3.58;;
26963;SDS011;14521;48.148;-1.656;2023-05-14T18:11:11;4.60;;;3.50;;
26963;SDS011;14521;48.148;-1.656;2023-05-14T18:14:33;4.65;;;4.10;;
26963;SDS011;14521;48.148;-1.656;2023-05-14T18:17:56;4.20;;;3.90;;
26963;SDS011;14521;48.148;-1.656;2023-05-14T18:21:18;4.28;;;3.97;;
26963;SDS011;14521;48.148;-1.656;2023-05-14T18:24:40;4.10;;;3.55;;
26963;SDS011;14521;48.148;-1.656;2023-05-14T18:28:05;5.68;;;3.60;;
26963;SDS011;14521;48.148;-1.656;2023-05-14T18:31:27;4.30;;;3.95;;
26963;SDS011;14521;48.148;-1.656;2023-05-14T18:34:49;4.93;;;3.75;;
26963;SDS011;14521;48.148;-1.656;2023-05-14T18:38:12;4.15;;;3.78;;
26963;SDS011;14521;48.148;-1.656;2023-05-14T18:41:34;11.20;;;4.22;;
26963;SDS011;14521;48.148;-1.656;2023-05-14T18:44:56;4.93;;;4.53;;
26963;SDS011;14521;48.148;-1.656;2023-05-14T18:48:19;4.38;;;4.07;;
26963;SDS011;14521;48.148;-1.656;2023-05-14T18:51:41;5.25;;;4.53;;
26963;SDS011;14521;48.148;-1.656;2023-05-14T18:55:03;4.63;;;4.30;;
26963;SDS011;14521;48.148;-1.656;2023-05-14T18:58:26;5.35;;;4.90;;
26963;SDS011;14521;48.148;-1.656;2023-05-14T19:01:48;8.25;;;4.75;;
26963;SDS011;14521;48.148;-1.656;2023-05-14T19:05:12;4.43;;;4.13;;
26963;SDS011;14521;48.148;-1.656;2023-05-14T19:08:34;6.57;;;4.32;;
26963;SDS011;14521;48.148;-1.656;2023-05-14T19:11:57;5.18;;;4.68;;
26963;SDS011;14521;48.148;-1.656;2023-05-14T19:15:19;9.98;;;5.30;;
26963;SDS011;14521;48.148;-1.656;2023-05-14T19:18:41;7.22;;;4.70;;
26963;SDS011;14521;48.148;-1.656;2023-05-14T19:22:04;6.10;;;5.45;;
26963;SDS011;14521;48.148;-1.656;2023-05-14T19:25:27;7.13;;;5.70;;
26963;SDS011;14521;48.148;-1.656;2023-05-14T19:28:50;6.05;;;5.50;;
26963;SDS011;14521;48.148;-1.656;2023-05-14T19:32:13;12.65;;;5.65;;
26963;SDS011;14521;48.148;-1.656;2023-05-14T19:35:35;9.52;;;5.60;;
26963;SDS011;14521;48.148;-1.656;2023-05-14T19:38:58;5.68;;;5.22;;
26963;SDS011;14521;48.148;-1.656;2023-05-14T19:42:20;6.60;;;5.63;;
26963;SDS011;14521;48.148;-1.656;2023-05-14T19:45:42;9.38;;;5.10;;
26963;SDS011;14521;48.148;-1.656;2023-05-14T19:49:06;6.25;;;5.35;;
26963;SDS011;14521;48.148;-1.656;2023-05-14T19:52:28;6.07;;;5.50;;
26963;SDS011;14521;48.148;-1.656;2023-05-14T19:55:51;6.85;;;5.40;;
26963;SDS011;14521;48.148;-1.656;2023-05-14T19:59:13;5.85;;;5.35;;
26963;SDS011;14521;48.148;-1.656;2023-05-14T20:02:36;8.70;;;5.68;;
26963;SDS011;14521;48.148;-1.656;2023-05-14T20:05:58;6.82;;;5.80;;
26963;SDS011;14521;48.148;-1.656;2023-05-14T20:09:21;6.57;;;5.82;;
26963;SDS011;14521;48.148;-1.656;2023-05-14T20:12:43;6.93;;;5.03;;
26963;SDS011;14521;48.148;-1.656;2023-05-14T20:16:05;5.43;;;5.03;;
26963;SDS011;14521;48.148;-1.656;2023-05-14T20:19:28;6.45;;;5.95;;
26963;SDS011;14521;48.148;-1.656;2023-05-14T20:22:51;6.95;;;6.25;;